Time,TemperatureF,DewpointF,PressureIn,WindDirection,WindDirectionDegrees,WindSpeedMPH,WindSpeedGustMPH,Humidity,HourlyPrecipIn,Conditions,Clouds,dailyrainin,SoftwareType,DateUTC
2013-05-23 00:03:00,43.2,38.0,30.06,NNW,348,4.0,4.0,82,0.00,,---,0.00,VWS V14.01,2013-05-23 05:03:00,
2013-05-23 00:08:00,43.2,38.4,30.06,NNW,348,4.0,4.0,83,0.00,,---,0.00,VWS V14.01,2013-05-23 05:08:00,
2013-05-23 00:13:00,43.3,38.8,30.06,NNW,348,4.0,4.0,84,0.00,,---,0.00,VWS V14.01,2013-05-23 05:13:00,
2013-05-23 00:19:00,43.5,39.3,30.06,NNW,348,4.0,4.0,85,0.00,,---,0.00,VWS V14.01,2013-05-23 05:19:00,
2013-05-23 00:24:00,43.7,39.8,30.06,NNW,348,4.0,4.0,86,0.00,,---,0.00,VWS V14.01,2013-05-23 05:24:00,
2013-05-23 00:30:00,43.7,39.8,30.06,NNW,348,4.0,4.0,86,0.00,,---,0.00,VWS V14.01,2013-05-23 05:30:00,
2013-05-23 00:35:00,43.3,39.4,30.06,NNW,348,4.0,4.0,86,0.00,,---,0.00,VWS V14.01,2013-05-23 05:35:00,
2013-05-23 00:40:00,43.5,39.6,30.06,NNW,348,4.0,4.0,86,0.00,,---,0.00,VWS V14.01,2013-05-23 05:40:00,
2013-05-23 00:46:00,43.7,40.1,30.06,NNW,348,4.0,4.0,87,0.00,,---,0.00,VWS V14.01,2013-05-23 05:46:00,
2013-05-23 00:51:00,43.5,39.9,30.06,NNW,348,4.0,4.0,87,0.00,,---,0.00,VWS V14.01,2013-05-23 05:51:00,
2013-05-23 00:56:00,43.5,39.9,30.06,NNW,348,4.0,4.0,87,0.00,,---,0.00,VWS V14.01,2013-05-23 05:56:00,
2013-05-23 01:01:00,43.5,39.9,30.06,NNE,29,3.1,5.8,87,0.00,,---,0.00,VWS V14.01,2013-05-23 06:01:00,
2013-05-23 01:07:00,43.5,39.9,30.06,North,0,2.7,2.7,87,0.00,,---,0.00,VWS V14.01,2013-05-23 06:07:00,
2013-05-23 01:12:00,43.5,39.9,30.06,North,0,2.7,2.7,87,0.00,,---,0.00,VWS V14.01,2013-05-23 06:12:00,
2013-05-23 01:17:00,43.3,39.7,30.09,North,0,2.7,2.7,87,0.00,,---,0.00,VWS V14.01,2013-05-23 06:17:00,
2013-05-23 01:22:00,43.2,39.6,30.09,North,0,2.7,2.7,87,0.00,,---,0.00,VWS V14.01,2013-05-23 06:22:00,
2013-05-23 01:27:00,43.2,39.6,30.09,North,0,2.7,2.7,87,0.00,,---,0.00,VWS V14.01,2013-05-23 06:27:00,
2013-05-23 01:33:00,43.2,39.6,30.09,North,357,0.0,0.0,87,0.00,,---,0.00,VWS V14.01,2013-05-23 06:33:00,
2013-05-23 01:39:00,43.2,39.6,30.09,North,357,0.0,0.0,87,0.00,,---,0.00,VWS V14.01,2013-05-23 06:39:00,
2013-05-23 01:44:00,43.3,39.7,30.09,North,7,0.0,0.0,87,0.00,,---,0.00,VWS V14.01,2013-05-23 06:44:00,
2013-05-23 01:50:00,43.0,39.4,30.09,North,7,3.1,3.1,87,0.00,,---,0.00,VWS V14.01,2013-05-23 06:50:00,
2013-05-23 01:55:00,43.0,39.4,30.09,North,7,3.1,3.1,87,0.00,,---,0.00,VWS V14.01,2013-05-23 06:55:00,
2013-05-23 02:01:00,43.0,39.4,30.09,North,7,3.1,3.1,87,0.00,,---,0.00,VWS V14.01,2013-05-23 07:01:00,
2013-05-23 02:07:00,42.8,39.2,30.09,North,7,3.1,3.1,87,0.00,,---,0.00,VWS V14.01,2013-05-23 07:07:00,
2013-05-23 02:12:00,42.6,39.0,30.09,North,7,3.1,3.1,87,0.00,,---,0.00,VWS V14.01,2013-05-23 07:12:00,
2013-05-23 02:18:00,43.0,39.4,30.09,North,7,3.1,3.1,87,0.00,,---,0.00,VWS V14.01,2013-05-23 07:18:00,
2013-05-23 02:24:00,43.7,40.1,30.09,North,7,3.1,3.1,87,0.00,,---,0.00,VWS V14.01,2013-05-23 07:24:00,
2013-05-23 02:29:00,43.9,40.3,30.09,North,7,3.1,3.1,87,0.00,,---,0.00,VWS V14.01,2013-05-23 07:29:00,
2013-05-23 02:34:00,43.5,39.6,30.12,North,4,3.1,3.1,86,0.00,,---,0.00,VWS V14.01,2013-05-23 07:34:00,
2013-05-23 02:40:00,43.3,39.1,30.12,North,4,3.1,3.1,85,0.00,,---,0.00,VWS V14.01,2013-05-23 07:40:00,
2013-05-23 02:45:00,43.5,39.3,30.12,North,4,3.1,3.1,85,0.00,,---,0.00,VWS V14.01,2013-05-23 07:45:00,
2013-05-23 02:51:00,43.5,39.0,30.12,NE,39,3.6,5.4,84,0.00,,---,0.00,VWS V14.01,2013-05-23 07:51:00,
2013-05-23 02:57:00,43.7,38.3,30.12,NE,49,5.8,5.8,81,0.00,,---,0.00,VWS V14.01,2013-05-23 07:57:00,
2013-05-23 03:03:00,44.6,37.5,30.12,NE,48,3.6,6.7,76,0.00,,---,0.00,VWS V14.01,2013-05-23 08:03:00,
2013-05-23 03:09:00,44.6,36.8,30.12,NE,51,4.0,5.8,74,0.00,,---,0.00,VWS V14.01,2013-05-23 08:09:00,
2013-05-23 03:15:00,44.4,36.7,30.12,ENE,58,3.6,3.6,74,0.00,,---,0.00,VWS V14.01,2013-05-23 08:15:00,
2013-05-23 03:21:00,45.0,36.5,30.12,NE,50,5.8,5.8,72,0.00,,---,0.00,VWS V14.01,2013-05-23 08:21:00,
2013-05-23 03:27:00,45.0,36.1,30.12,NE,52,6.3,6.3,71,0.00,,---,0.00,VWS V14.01,2013-05-23 08:27:00,
2013-05-23 03:32:00,45.3,36.1,30.15,ENE,70,3.1,3.1,70,0.00,,---,0.00,VWS V14.01,2013-05-23 08:32:00,
2013-05-23 03:37:00,45.3,35.8,30.15,ENE,60,6.3,6.3,69,0.00,,---,0.00,VWS V14.01,2013-05-23 08:37:00,
2013-05-23 03:42:00,45.5,35.6,30.15,ENE,75,4.9,7.2,68,0.00,,---,0.00,VWS V14.01,2013-05-23 08:42:00,
2013-05-23 03:48:00,45.3,35.0,30.15,ENE,71,3.1,4.0,67,0.00,,---,0.00,VWS V14.01,2013-05-23 08:48:00,
2013-05-23 03:54:00,45.0,35.0,30.15,NE,47,5.8,6.3,68,0.00,,---,0.00,VWS V14.01,2013-05-23 08:54:00,
2013-05-23 03:59:00,44.6,34.3,30.15,NE,45,2.7,2.7,67,0.00,,---,0.00,VWS V14.01,2013-05-23 08:59:00,
2013-05-23 04:04:00,43.9,34.4,30.15,NE,47,4.0,4.0,69,0.00,,---,0.00,VWS V14.01,2013-05-23 09:04:00,
2013-05-23 04:09:00,43.0,33.5,30.15,NNE,23,4.0,4.0,69,0.00,,---,0.00,VWS V14.01,2013-05-23 09:09:00,
2013-05-23 04:14:00,42.8,33.7,30.15,North,357,4.0,4.0,70,0.00,,---,0.00,VWS V14.01,2013-05-23 09:14:00,
2013-05-23 04:20:00,42.8,33.7,30.15,NNE,14,4.0,4.9,70,0.00,,---,0.00,VWS V14.01,2013-05-23 09:20:00,
2013-05-23 04:26:00,42.4,33.4,30.15,NE,36,3.6,3.6,70,0.00,,---,0.00,VWS V14.01,2013-05-23 09:26:00,
2013-05-23 04:32:00,42.1,33.0,30.18,NNE,26,3.1,3.1,70,0.00,,---,0.00,VWS V14.01,2013-05-23 09:32:00,
2013-05-23 04:37:00,42.1,33.0,30.18,NNE,33,5.8,5.8,70,0.00,,---,0.00,VWS V14.01,2013-05-23 09:37:00,
2013-05-23 04:43:00,42.1,33.0,30.18,NE,43,2.7,3.1,70,0.00,,---,0.00,VWS V14.01,2013-05-23 09:43:00,
2013-05-23 04:48:00,42.1,32.7,30.18,NNE,30,4.9,4.9,69,0.00,,---,0.00,VWS V14.01,2013-05-23 09:48:00,
2013-05-23 04:53:00,42.1,32.3,30.18,NNE,31,2.7,2.7,68,0.00,,---,0.00,VWS V14.01,2013-05-23 09:53:00,
2013-05-23 04:59:00,42.8,32.6,30.18,NNE,26,5.4,5.4,67,0.00,,---,0.00,VWS V14.01,2013-05-23 09:59:00,
2013-05-23 05:05:00,42.8,31.9,30.18,NNE,29,4.9,4.9,65,0.00,,---,0.00,VWS V14.01,2013-05-23 10:05:00,
2013-05-23 05:10:00,43.3,31.2,30.18,NE,42,5.4,5.8,62,0.00,,---,0.00,VWS V14.01,2013-05-23 10:10:00,
2013-05-23 05:15:00,44.2,33.6,30.18,ENE,64,5.4,5.4,66,0.00,,---,0.00,VWS V14.01,2013-05-23 10:15:00,
2013-05-23 05:21:00,45.1,32.9,30.18,NE,54,5.8,5.8,62,0.00,,---,0.00,VWS V14.01,2013-05-23 10:21:00,
2013-05-23 05:26:00,45.3,32.3,30.18,ENE,61,7.2,7.2,60,0.00,,---,0.00,VWS V14.01,2013-05-23 10:26:00,
2013-05-23 05:31:00,45.3,31.0,30.21,NE,52,7.6,8.1,57,0.00,,---,0.00,VWS V14.01,2013-05-23 10:31:00,
2013-05-23 05:36:00,45.0,31.1,30.21,ENE,58,5.4,6.7,58,0.00,,---,0.00,VWS V14.01,2013-05-23 10:36:00,
2013-05-23 05:42:00,45.1,30.8,30.21,ENE,70,5.4,6.3,57,0.00,,---,0.00,VWS V14.01,2013-05-23 10:42:00,
2013-05-23 05:47:00,45.5,33.2,30.21,ENE,71,4.0,5.4,62,0.00,,---,0.00,VWS V14.01,2013-05-23 10:47:00,
2013-05-23 05:52:00,45.9,31.5,30.21,ENE,66,7.6,7.6,57,0.00,,---,0.00,VWS V14.01,2013-05-23 10:52:00,
2013-05-23 05:57:00,46.0,31.2,30.21,ENE,61,3.6,3.6,56,0.00,,---,0.00,VWS V14.01,2013-05-23 10:57:00,
2013-05-23 06:03:00,46.0,32.5,30.21,NE,37,5.8,10.1,59,0.00,,---,0.00,VWS V14.01,2013-05-23 11:03:00,
2013-05-23 06:08:00,46.0,32.1,30.21,NE,49,5.4,9.2,58,0.00,,---,0.00,VWS V14.01,2013-05-23 11:08:00,
2013-05-23 06:14:00,45.7,30.9,30.21,NE,50,7.6,7.6,56,0.00,,---,0.00,VWS V14.01,2013-05-23 11:14:00,
2013-05-23 06:19:00,46.0,30.8,30.21,NE,42,8.3,8.3,55,0.00,,---,0.00,VWS V14.01,2013-05-23 11:19:00,
2013-05-23 06:25:00,46.0,31.2,30.21,NE,49,4.9,7.6,56,0.00,,---,0.00,VWS V14.01,2013-05-23 11:25:00,
2013-05-23 06:30:00,45.7,30.9,30.21,NE,34,5.8,5.8,56,0.00,,---,0.00,VWS V14.01,2013-05-23 11:30:00,
2013-05-23 06:36:00,45.5,29.8,30.21,NE,41,6.3,6.3,54,0.00,,---,0.00,VWS V14.01,2013-05-23 11:36:00,
2013-05-23 06:42:00,45.7,30.5,30.21,NE,48,5.8,8.3,55,0.00,,---,0.00,VWS V14.01,2013-05-23 11:42:00,
2013-05-23 06:47:00,45.9,31.1,30.24,NE,54,5.4,5.8,56,0.00,,---,0.00,VWS V14.01,2013-05-23 11:47:00,
2013-05-23 06:52:00,46.4,31.6,30.24,NE,56,4.0,4.9,56,0.00,,---,0.00,VWS V14.01,2013-05-23 11:52:00,
2013-05-23 06:58:00,46.4,31.6,30.24,NE,54,5.8,7.6,56,0.00,,---,0.00,VWS V14.01,2013-05-23 11:58:00,
2013-05-23 07:04:00,46.0,30.8,30.24,ENE,70,6.3,6.3,55,0.00,,---,0.00,VWS V14.01,2013-05-23 12:04:00,
2013-05-23 07:09:00,46.2,30.5,30.24,ENE,65,10.1,10.1,54,0.00,,---,0.00,VWS V14.01,2013-05-23 12:09:00,
2013-05-23 07:15:00,46.4,30.7,30.24,ENE,71,3.6,8.3,54,0.00,,---,0.00,VWS V14.01,2013-05-23 12:15:00,
2013-05-23 07:20:00,47.1,32.2,30.24,ENE,64,6.3,6.3,56,0.00,,---,0.00,VWS V14.01,2013-05-23 12:20:00,
2013-05-23 07:26:00,46.8,31.0,30.24,NE,54,6.7,6.7,54,0.00,,---,0.00,VWS V14.01,2013-05-23 12:26:00,
2013-05-23 07:31:00,46.6,29.9,30.24,ENE,63,5.4,5.4,52,0.00,,---,0.00,VWS V14.01,2013-05-23 12:31:00,
2013-05-23 07:37:00,47.1,31.8,30.24,NE,56,7.2,7.2,55,0.00,,---,0.00,VWS V14.01,2013-05-23 12:37:00,
2013-05-23 07:42:00,46.6,29.4,30.24,ENE,77,5.8,8.7,51,0.00,,---,0.00,VWS V14.01,2013-05-23 12:42:00,
2013-05-23 07:48:00,46.9,30.2,30.24,East,88,8.7,8.7,52,0.00,,---,0.00,VWS V14.01,2013-05-23 12:48:00,
2013-05-23 07:53:00,46.8,29.1,30.24,ENE,66,4.0,10.1,50,0.00,,---,0.00,VWS V14.01,2013-05-23 12:53:00,
2013-05-23 07:58:00,47.3,31.0,30.24,ENE,59,10.5,10.5,53,0.00,,---,0.00,VWS V14.01,2013-05-23 12:58:00,
2013-05-23 08:04:00,47.1,29.5,30.27,NE,43,11.4,11.4,50,0.00,,---,0.00,VWS V14.01,2013-05-23 13:04:00,
2013-05-23 08:09:00,47.5,30.8,30.27,ENE,61,11.0,11.0,52,0.00,,---,0.00,VWS V14.01,2013-05-23 13:09:00,
2013-05-23 08:15:00,47.5,29.8,30.27,NE,54,8.3,8.3,50,0.00,,---,0.00,VWS V14.01,2013-05-23 13:15:00,
2013-05-23 08:21:00,47.5,31.7,30.27,ENE,67,8.7,8.7,54,0.00,,---,0.00,VWS V14.01,2013-05-23 13:21:00,
2013-05-23 08:27:00,47.5,29.3,30.27,East,85,7.6,7.6,49,0.00,,---,0.00,VWS V14.01,2013-05-23 13:27:00,
2013-05-23 08:33:00,47.5,29.3,30.27,ENE,68,4.9,7.6,49,0.00,,---,0.00,VWS V14.01,2013-05-23 13:33:00,
2013-05-23 08:38:00,47.7,29.5,30.27,NE,55,10.1,10.5,49,0.00,,---,0.00,VWS V14.01,2013-05-23 13:38:00,
2013-05-23 08:44:00,47.5,28.8,30.27,NE,46,11.0,11.0,48,0.00,,---,0.00,VWS V14.01,2013-05-23 13:44:00,
2013-05-23 08:50:00,48.2,30.5,30.27,ENE,63,4.0,4.0,50,0.00,,---,0.00,VWS V14.01,2013-05-23 13:50:00,
2013-05-23 08:55:00,48.6,30.3,30.27,ENE,63,4.0,4.0,49,0.00,,---,0.00,VWS V14.01,2013-05-23 13:55:00,
2013-05-23 09:00:00,48.6,30.3,30.27,ENE,58,8.7,8.7,49,0.00,,---,0.00,VWS V14.01,2013-05-23 14:00:00,
2013-05-23 09:06:00,48.6,29.8,30.27,ENE,64,8.3,8.3,48,0.00,,---,0.00,VWS V14.01,2013-05-23 14:06:00,
2013-05-23 09:12:00,48.7,29.4,30.27,ENE,65,11.0,11.0,47,0.00,,---,0.00,VWS V14.01,2013-05-23 14:12:00,
2013-05-23 09:18:00,48.7,29.9,30.27,ENE,64,8.7,8.7,48,0.00,,---,0.00,VWS V14.01,2013-05-23 14:18:00,
2013-05-23 09:23:00,49.1,30.3,30.27,ENE,69,8.1,8.1,48,0.00,,---,0.00,VWS V14.01,2013-05-23 14:23:00,
2013-05-23 09:28:00,48.9,29.1,30.27,ENE,69,8.1,8.1,46,0.00,,---,0.00,VWS V14.01,2013-05-23 14:28:00,
2013-05-23 09:33:00,49.3,29.4,30.27,NE,37,10.5,10.5,46,0.00,,---,0.00,VWS V14.01,2013-05-23 14:33:00,
2013-05-23 09:39:00,49.5,30.1,30.27,NE,37,10.5,10.5,47,0.00,,---,0.00,VWS V14.01,2013-05-23 14:39:00,
2013-05-23 09:45:00,50.0,30.6,30.27,ENE,60,12.8,12.8,47,0.00,,---,0.00,VWS V14.01,2013-05-23 14:45:00,
2013-05-23 09:50:00,50.0,30.6,30.27,ENE,60,12.8,12.8,47,0.00,,---,0.00,VWS V14.01,2013-05-23 14:50:00,
2013-05-23 09:56:00,50.2,29.1,30.27,ENE,60,12.8,12.8,44,0.00,,---,0.00,VWS V14.01,2013-05-23 14:56:00,
2013-05-23 10:01:00,50.0,27.2,30.27,ENE,60,12.8,12.8,41,0.00,,---,0.00,VWS V14.01,2013-05-23 15:01:00,
2013-05-23 10:06:00,50.0,27.2,30.27,ENE,60,12.8,12.8,41,0.00,,---,0.00,VWS V14.01,2013-05-23 15:06:00,
2013-05-23 10:11:00,50.5,30.5,30.27,ENE,60,12.8,12.8,46,0.00,,---,0.00,VWS V14.01,2013-05-23 15:11:00,
2013-05-23 10:17:00,50.5,27.7,30.27,ENE,60,12.8,12.8,41,0.00,,---,0.00,VWS V14.01,2013-05-23 15:17:00,
2013-05-23 10:23:00,50.7,27.3,30.27,ENE,60,12.8,12.8,40,0.00,,---,0.00,VWS V14.01,2013-05-23 15:23:00,
2013-05-23 10:28:00,51.1,27.6,30.27,ENE,60,12.8,12.8,40,0.00,,---,0.00,VWS V14.01,2013-05-23 15:28:00,
2013-05-23 10:33:00,51.1,27.0,30.29,ENE,60,12.8,12.8,39,0.00,,---,0.00,VWS V14.01,2013-05-23 15:33:00,
2013-05-23 10:39:00,51.3,27.2,30.29,ENE,60,12.8,12.8,39,0.00,,---,0.00,VWS V14.01,2013-05-23 15:39:00,
2013-05-23 10:44:00,51.6,28.1,30.29,ENE,60,12.8,12.8,40,0.00,,---,0.00,VWS V14.01,2013-05-23 15:44:00,
2013-05-23 10:49:00,51.8,27.0,30.29,ENE,60,12.8,12.8,38,0.00,,---,0.00,VWS V14.01,2013-05-23 15:49:00,
2013-05-23 10:54:00,51.8,27.0,30.29,ENE,60,12.8,12.8,38,0.00,,---,0.00,VWS V14.01,2013-05-23 15:54:00,
2013-05-23 10:59:00,51.8,27.0,30.29,ENE,60,12.8,12.8,38,0.00,,---,0.00,VWS V14.01,2013-05-23 15:59:00,
2013-05-23 11:05:00,52.3,28.8,30.29,ENE,60,12.8,12.8,40,0.00,,---,0.00,VWS V14.01,2013-05-23 16:05:00,
2013-05-23 11:10:00,52.2,27.3,30.29,ENE,60,12.8,12.8,38,0.00,,---,0.00,VWS V14.01,2013-05-23 16:10:00,
2013-05-23 11:15:00,52.5,27.7,30.29,ENE,60,12.8,12.8,38,0.00,,---,0.00,VWS V14.01,2013-05-23 16:15:00,
2013-05-23 11:20:00,52.3,26.9,30.29,ENE,60,12.8,12.8,37,0.00,,---,0.00,VWS V14.01,2013-05-23 16:20:00,
2013-05-23 11:25:00,52.7,27.2,30.29,ENE,60,12.8,12.8,37,0.00,,---,0.00,VWS V14.01,2013-05-23 16:25:00,
2013-05-23 11:31:00,52.7,27.2,30.29,ENE,60,12.8,12.8,37,0.00,,---,0.00,VWS V14.01,2013-05-23 16:31:00,
2013-05-23 11:36:00,52.7,27.2,30.29,ENE,60,12.8,12.8,37,0.00,,---,0.00,VWS V14.01,2013-05-23 16:36:00,
2013-05-23 11:41:00,52.9,28.0,30.29,ENE,60,12.8,12.8,38,0.00,,---,0.00,VWS V14.01,2013-05-23 16:41:00,
2013-05-23 11:46:00,53.2,27.7,30.29,ENE,60,12.8,12.8,37,0.00,,---,0.00,VWS V14.01,2013-05-23 16:46:00,
2013-05-23 11:52:00,53.1,27.5,30.29,ENE,60,12.8,12.8,37,0.00,,---,0.00,VWS V14.01,2013-05-23 16:52:00,
2013-05-23 11:58:00,53.4,27.8,30.29,ENE,60,12.8,12.8,37,0.00,,---,0.00,VWS V14.01,2013-05-23 16:58:00,
2013-05-23 12:03:00,53.4,29.1,30.29,ENE,60,12.8,12.8,39,0.00,,---,0.00,VWS V14.01,2013-05-23 17:03:00,
2013-05-23 12:08:00,54.0,28.3,30.29,ENE,60,12.8,12.8,37,0.00,,---,0.00,VWS V14.01,2013-05-23 17:08:00,
2013-05-23 12:14:00,53.8,28.1,30.29,ENE,60,12.8,12.8,37,0.00,,---,0.00,VWS V14.01,2013-05-23 17:14:00,
2013-05-23 12:19:00,54.0,27.6,30.29,ENE,60,12.8,12.8,36,0.00,,---,0.00,VWS V14.01,2013-05-23 17:19:00,
2013-05-23 12:25:00,54.3,28.0,30.29,ENE,60,12.8,12.8,36,0.00,,---,0.00,VWS V14.01,2013-05-23 17:25:00,
2013-05-23 12:31:00,54.5,28.8,30.29,ENE,60,12.8,12.8,37,0.00,,---,0.00,VWS V14.01,2013-05-23 17:31:00,
2013-05-23 12:36:00,54.7,28.3,30.29,ENE,60,12.8,12.8,36,0.00,,---,0.00,VWS V14.01,2013-05-23 17:36:00,
2013-05-23 12:42:00,54.9,28.4,30.29,ENE,60,12.8,12.8,36,0.00,,---,0.00,VWS V14.01,2013-05-23 17:42:00,
2013-05-23 12:47:00,55.2,28.1,30.29,ENE,60,12.8,12.8,35,0.00,,---,0.00,VWS V14.01,2013-05-23 17:47:00,
2013-05-23 12:53:00,55.8,28.5,30.29,ENE,60,12.8,12.8,35,0.00,,---,0.00,VWS V14.01,2013-05-23 17:53:00,
2013-05-23 12:58:00,55.8,29.2,30.29,ENE,60,12.8,12.8,36,0.00,,---,0.00,VWS V14.01,2013-05-23 17:58:00,
2013-05-23 13:04:00,56.3,29.0,30.29,ENE,60,12.8,12.8,35,0.00,,---,0.00,VWS V14.01,2013-05-23 18:04:00,
2013-05-23 13:09:00,55.9,28.0,30.29,ENE,60,12.8,12.8,34,0.00,,---,0.00,VWS V14.01,2013-05-23 18:09:00,
2013-05-23 13:15:00,56.5,28.5,30.29,ENE,60,12.8,12.8,34,0.00,,---,0.00,VWS V14.01,2013-05-23 18:15:00,
2013-05-23 13:21:00,57.0,27.5,30.29,ENE,60,12.8,12.8,32,0.00,,---,0.00,VWS V14.01,2013-05-23 18:21:00,
2013-05-23 13:27:00,56.5,27.0,30.29,ENE,60,12.8,12.8,32,0.00,,---,0.00,VWS V14.01,2013-05-23 18:27:00,
2013-05-23 13:32:00,56.5,28.5,30.29,ENE,60,12.8,12.8,34,0.00,,---,0.00,VWS V14.01,2013-05-23 18:32:00,
2013-05-23 13:37:00,56.7,27.2,30.29,ENE,60,12.8,12.8,32,0.00,,---,0.00,VWS V14.01,2013-05-23 18:37:00,
2013-05-23 13:43:00,57.4,25.4,30.29,ENE,60,12.8,12.8,29,0.00,,---,0.00,VWS V14.01,2013-05-23 18:43:00,
2013-05-23 13:48:00,57.4,27.0,30.29,ENE,60,12.8,12.8,31,0.00,,---,0.00,VWS V14.01,2013-05-23 18:48:00,
2013-05-23 13:54:00,57.2,26.1,30.29,ENE,60,12.8,12.8,30,0.00,,---,0.00,VWS V14.01,2013-05-23 18:54:00,
2013-05-23 13:59:00,58.1,26.0,30.29,ENE,60,12.8,12.8,29,0.00,,---,0.00,VWS V14.01,2013-05-23 18:59:00,
2013-05-23 14:05:00,58.1,26.0,30.29,ENE,60,12.8,12.8,29,0.00,,---,0.00,VWS V14.01,2013-05-23 19:05:00,
2013-05-23 14:10:00,58.1,28.4,30.29,ENE,60,12.8,12.8,32,0.00,,---,0.00,VWS V14.01,2013-05-23 19:10:00,
2013-05-23 14:15:00,57.9,28.3,30.29,NNE,17,6.7,6.7,32,0.00,,---,0.00,VWS V14.01,2013-05-23 19:15:00,
2013-05-23 14:20:00,57.9,25.9,30.29,NE,38,7.6,7.6,29,0.00,,---,0.00,VWS V14.01,2013-05-23 19:20:00,
2013-05-23 14:25:00,57.9,29.0,30.29,NE,41,8.1,8.1,33,0.00,,---,0.00,VWS V14.01,2013-05-23 19:25:00,
2013-05-23 14:31:00,58.1,26.0,30.29,NE,44,5.4,5.4,29,0.00,,---,0.00,VWS V14.01,2013-05-23 19:31:00,
2013-05-23 14:36:00,58.3,26.2,30.29,NE,39,7.6,7.6,29,0.00,,---,0.00,VWS V14.01,2013-05-23 19:36:00,
2013-05-23 14:41:00,58.3,25.3,30.29,NE,38,8.1,8.1,28,0.00,,---,0.00,VWS V14.01,2013-05-23 19:41:00,
2013-05-23 14:46:00,58.6,25.6,30.27,NNE,29,5.8,13.2,28,0.00,,---,0.00,VWS V14.01,2013-05-23 19:46:00,
2013-05-23 14:51:00,59.0,26.8,30.27,NE,55,5.8,8.3,29,0.00,,---,0.00,VWS V14.01,2013-05-23 19:51:00,
2013-05-23 14:57:00,59.2,27.0,30.27,NE,54,13.2,16.3,29,0.00,,---,0.00,VWS V14.01,2013-05-23 19:57:00,
2013-05-23 15:03:00,58.6,26.5,30.29,ENE,72,5.4,5.4,29,0.00,,---,0.00,VWS V14.01,2013-05-23 20:03:00,
2013-05-23 15:08:00,58.8,26.6,30.29,ESE,102,8.7,8.7,29,0.00,,---,0.00,VWS V14.01,2013-05-23 20:08:00,
2013-05-23 15:14:00,59.2,26.1,30.29,NNE,31,5.4,8.7,28,0.00,,---,0.00,VWS V14.01,2013-05-23 20:14:00,
2013-05-23 15:20:00,59.7,26.6,30.29,NE,52,5.4,5.4,28,0.00,,---,0.00,VWS V14.01,2013-05-23 20:20:00,
2013-05-23 15:26:00,59.2,27.0,30.29,NE,53,11.0,11.0,29,0.00,,---,0.00,VWS V14.01,2013-05-23 20:26:00,
2013-05-23 15:31:00,59.2,26.1,30.27,ENE,70,9.2,12.8,28,0.00,,---,0.00,VWS V14.01,2013-05-23 20:31:00,
2013-05-23 15:37:00,59.4,26.3,30.27,East,87,4.9,4.9,28,0.00,,---,0.00,VWS V14.01,2013-05-23 20:37:00,
2013-05-23 15:42:00,59.5,28.1,30.27,East,87,4.9,4.9,30,0.00,,---,0.00,VWS V14.01,2013-05-23 20:42:00,
2013-05-23 15:48:00,59.2,25.2,30.27,ENE,60,8.7,8.7,27,0.00,,---,0.00,VWS V14.01,2013-05-23 20:48:00,
2013-05-23 15:53:00,59.5,27.3,30.27,ENE,66,5.4,6.3,29,0.00,,---,0.00,VWS V14.01,2013-05-23 20:53:00,
2013-05-23 15:59:00,59.7,26.6,30.27,East,84,7.6,7.6,28,0.00,,---,0.00,VWS V14.01,2013-05-23 20:59:00,
2013-05-23 16:04:00,59.7,25.7,30.27,ENE,59,5.8,6.7,27,0.00,,---,0.00,VWS V14.01,2013-05-23 21:04:00,
2013-05-23 16:09:00,59.7,26.6,30.27,East,82,7.6,8.3,28,0.00,,---,0.00,VWS V14.01,2013-05-23 21:09:00,
2013-05-23 16:14:00,59.5,25.5,30.27,East,82,7.6,7.6,27,0.00,,---,0.00,VWS V14.01,2013-05-23 21:14:00,
2013-05-23 16:19:00,59.9,25.9,30.27,North,357,10.1,10.1,27,0.00,,---,0.00,VWS V14.01,2013-05-23 21:19:00,
2013-05-23 16:24:00,60.6,27.4,30.27,NNE,29,6.3,6.3,28,0.00,,---,0.00,VWS V14.01,2013-05-23 21:24:00,
2013-05-23 16:30:00,60.3,27.0,30.27,NE,55,4.0,4.0,28,0.00,,---,0.00,VWS V14.01,2013-05-23 21:30:00,
2013-05-23 16:35:00,60.4,26.3,30.27,NNE,19,7.6,7.6,27,0.00,,---,0.00,VWS V14.01,2013-05-23 21:35:00,
2013-05-23 16:41:00,59.9,26.7,30.27,NNE,19,7.6,7.6,28,0.00,,---,0.00,VWS V14.01,2013-05-23 21:41:00,
2013-05-23 16:46:00,60.1,26.9,30.27,NE,42,8.1,8.1,28,0.00,,---,0.00,VWS V14.01,2013-05-23 21:46:00,
2013-05-23 16:51:00,60.3,27.9,30.27,ENE,68,8.1,8.1,29,0.00,,---,0.00,VWS V14.01,2013-05-23 21:51:00,
2013-05-23 16:56:00,60.1,28.6,30.27,ENE,71,5.8,5.8,30,0.00,,---,0.00,VWS V14.01,2013-05-23 21:56:00,
2013-05-23 17:01:00,60.3,27.0,30.27,NE,56,6.7,6.7,28,0.00,,---,0.00,VWS V14.01,2013-05-23 22:01:00,
2013-05-23 17:06:00,60.6,26.5,30.27,NE,45,5.4,5.8,27,0.00,,---,0.00,VWS V14.01,2013-05-23 22:06:00,
2013-05-23 17:11:00,60.4,26.3,30.27,NE,55,5.8,8.7,27,0.00,,---,0.00,VWS V14.01,2013-05-23 22:11:00,
2013-05-23 17:17:00,60.6,26.5,30.27,ENE,61,5.4,5.4,27,0.00,,---,0.00,VWS V14.01,2013-05-23 22:17:00,
2013-05-23 17:23:00,61.0,26.8,30.27,NE,49,5.4,5.4,27,0.00,,---,0.00,VWS V14.01,2013-05-23 22:23:00,
2013-05-23 17:28:00,60.6,27.4,30.27,ENE,68,6.3,8.1,28,0.00,,---,0.00,VWS V14.01,2013-05-23 22:28:00,
2013-05-23 17:34:00,60.6,27.4,30.27,ENE,57,7.6,7.6,28,0.00,,---,0.00,VWS V14.01,2013-05-23 22:34:00,
2013-05-23 17:39:00,60.6,26.5,30.27,NE,39,4.9,5.8,27,0.00,,---,0.00,VWS V14.01,2013-05-23 22:39:00,
2013-05-23 17:44:00,61.0,27.7,30.27,NE,39,4.0,4.0,28,0.00,,---,0.00,VWS V14.01,2013-05-23 22:44:00,
2013-05-23 17:50:00,61.2,27.8,30.27,ENE,57,5.8,7.2,28,0.00,,---,0.00,VWS V14.01,2013-05-23 22:50:00,
2013-05-23 17:55:00,61.3,28.0,30.27,East,94,0.0,0.0,28,0.00,,---,0.00,VWS V14.01,2013-05-23 22:55:00,
2013-05-23 18:00:00,61.2,27.8,30.27,NNE,22,6.3,6.3,28,0.00,,---,0.00,VWS V14.01,2013-05-23 23:00:00,
2013-05-23 18:05:00,61.2,26.9,30.27,NE,45,8.1,8.1,27,0.00,,---,0.00,VWS V14.01,2013-05-23 23:05:00,
2013-05-23 18:10:00,61.2,29.5,30.27,NE,46,8.3,8.3,30,0.00,,---,0.00,VWS V14.01,2013-05-23 23:10:00,
2013-05-23 18:16:00,61.2,28.7,30.27,ENE,72,3.6,3.6,29,0.00,,---,0.00,VWS V14.01,2013-05-23 23:16:00,
2013-05-23 18:21:00,61.2,27.8,30.27,NE,46,10.1,10.1,28,0.00,,---,0.00,VWS V14.01,2013-05-23 23:21:00,
2013-05-23 18:27:00,61.2,27.8,30.27,ENE,60,5.8,6.3,28,0.00,,---,0.00,VWS V14.01,2013-05-23 23:27:00,
2013-05-23 18:33:00,61.0,28.5,30.27,NE,52,5.8,5.8,29,0.00,,---,0.00,VWS V14.01,2013-05-23 23:33:00,
2013-05-23 18:38:00,61.0,27.7,30.27,ENE,64,4.9,4.9,28,0.00,,---,0.00,VWS V14.01,2013-05-23 23:38:00,
2013-05-23 18:44:00,61.0,27.7,30.27,NE,46,0.0,0.0,28,0.00,,---,0.00,VWS V14.01,2013-05-23 23:44:00,
2013-05-23 18:49:00,60.8,26.6,30.27,NE,46,0.0,0.0,27,0.00,,---,0.00,VWS V14.01,2013-05-23 23:49:00,
2013-05-23 18:55:00,61.0,26.8,30.27,North,349,0.0,0.0,27,0.00,,---,0.00,VWS V14.01,2013-05-23 23:55:00,
2013-05-23 19:00:00,60.8,27.5,30.27,North,349,0.0,0.0,28,0.00,,---,0.00,VWS V14.01,2013-05-24 00:00:00,
2013-05-23 19:06:00,60.6,27.4,30.27,North,349,0.0,0.0,28,0.00,,---,0.00,VWS V14.01,2013-05-24 00:06:00,
2013-05-23 19:12:00,60.6,29.0,30.27,North,349,0.0,0.0,30,0.00,,---,0.00,VWS V14.01,2013-05-24 00:12:00,
2013-05-23 19:18:00,60.3,27.9,30.27,North,349,0.0,0.0,29,0.00,,---,0.00,VWS V14.01,2013-05-24 00:18:00,
2013-05-23 19:23:00,60.1,27.7,30.27,North,349,0.0,0.0,29,0.00,,---,0.00,VWS V14.01,2013-05-24 00:23:00,
2013-05-23 19:28:00,60.1,26.9,30.27,North,349,0.0,0.0,28,0.00,,---,0.00,VWS V14.01,2013-05-24 00:28:00,
2013-05-23 19:34:00,59.9,27.6,30.27,North,349,0.0,0.0,29,0.00,,---,0.00,VWS V14.01,2013-05-24 00:34:00,
2013-05-23 19:39:00,59.7,28.3,30.27,North,349,0.0,0.0,30,0.00,,---,0.00,VWS V14.01,2013-05-24 00:39:00,
2013-05-23 19:45:00,59.5,26.4,30.27,North,349,0.0,0.0,28,0.00,,---,0.00,VWS V14.01,2013-05-24 00:45:00,
2013-05-23 19:50:00,59.2,27.8,30.27,North,349,0.0,0.0,30,0.00,,---,0.00,VWS V14.01,2013-05-24 00:50:00,
2013-05-23 19:56:00,58.8,26.6,30.27,North,349,0.0,0.0,29,0.00,,---,0.00,VWS V14.01,2013-05-24 00:56:00,
2013-05-23 20:01:00,58.5,26.3,30.27,North,349,0.0,0.0,29,0.00,,---,0.00,VWS V14.01,2013-05-24 01:01:00,
2013-05-23 20:06:00,58.3,26.2,30.27,North,349,0.0,0.0,29,0.00,,---,0.00,VWS V14.01,2013-05-24 01:06:00,
2013-05-23 20:11:00,57.9,26.7,30.27,North,349,0.0,0.0,30,0.00,,---,0.00,VWS V14.01,2013-05-24 01:11:00,
2013-05-23 20:16:00,57.6,27.2,30.27,North,349,0.0,0.0,31,0.00,,---,0.00,VWS V14.01,2013-05-24 01:16:00,
2013-05-23 20:22:00,56.8,27.3,30.27,North,349,0.0,0.0,32,0.00,,---,0.00,VWS V14.01,2013-05-24 01:22:00,
2013-05-23 20:28:00,56.1,29.5,30.27,North,349,0.0,0.0,36,0.00,,---,0.00,VWS V14.01,2013-05-24 01:28:00,
2013-05-23 20:33:00,55.9,29.4,30.27,ESE,107,5.4,5.4,36,0.00,,---,0.00,VWS V14.01,2013-05-24 01:33:00,
2013-05-23 20:39:00,55.8,28.5,30.27,ESE,107,5.4,5.4,35,0.00,,---,0.00,VWS V14.01,2013-05-24 01:39:00,
2013-05-23 20:44:00,55.4,28.9,30.27,ESE,107,3.1,3.1,36,0.00,,---,0.00,VWS V14.01,2013-05-24 01:44:00,
2013-05-23 20:49:00,55.0,29.3,30.27,ESE,104,3.6,3.6,37,0.00,,---,0.00,VWS V14.01,2013-05-24 01:49:00,
2013-05-23 20:54:00,55.0,28.6,30.27,East,95,4.0,4.0,36,0.00,,---,0.00,VWS V14.01,2013-05-24 01:54:00,
2013-05-23 20:59:00,54.9,28.4,30.27,ESE,102,4.9,4.9,36,0.00,,---,0.00,VWS V14.01,2013-05-24 01:59:00,
2013-05-23 21:05:00,54.3,28.6,30.27,ESE,102,4.9,4.9,37,0.00,,---,0.00,VWS V14.01,2013-05-24 02:05:00,
2013-05-23 21:10:00,53.1,28.1,30.27,ESE,106,4.0,4.9,38,0.00,,---,0.00,VWS V14.01,2013-05-24 02:10:00,
2013-05-23 21:15:00,51.8,27.0,30.27,ESE,105,3.6,3.6,38,0.00,,---,0.00,VWS V14.01,2013-05-24 02:15:00,
2013-05-23 21:20:00,50.7,27.3,30.27,ESE,105,3.6,3.6,40,0.00,,---,0.00,VWS V14.01,2013-05-24 02:20:00,
2013-05-23 21:25:00,49.8,27.7,30.27,ESE,105,3.6,3.6,42,0.00,,---,0.00,VWS V14.01,2013-05-24 02:25:00,
2013-05-23 21:31:00,49.5,32.1,30.29,ESE,105,4.0,4.0,51,0.00,,---,0.00,VWS V14.01,2013-05-24 02:31:00,
2013-05-23 21:36:00,50.2,35.1,30.29,ESE,104,3.6,3.6,56,0.00,,---,0.00,VWS V14.01,2013-05-24 02:36:00,
2013-05-23 21:41:00,50.5,33.6,30.29,East,101,4.0,4.9,52,0.00,,---,0.00,VWS V14.01,2013-05-24 02:41:00,
2013-05-23 21:46:00,49.5,31.1,30.29,East,101,3.1,4.0,49,0.00,,---,0.00,VWS V14.01,2013-05-24 02:46:00,
2013-05-23 21:51:00,48.2,29.5,30.29,East,101,2.7,2.7,48,0.00,,---,0.00,VWS V14.01,2013-05-24 02:51:00,
2013-05-23 21:57:00,47.7,29.5,30.29,East,100,0.0,0.0,49,0.00,,---,0.00,VWS V14.01,2013-05-24 02:57:00,
2013-05-23 22:02:00,47.5,29.3,30.29,East,100,0.0,0.0,49,0.00,,---,0.00,VWS V14.01,2013-05-24 03:02:00,
2013-05-23 22:07:00,47.3,29.1,30.29,East,100,0.0,0.0,49,0.00,,---,0.00,VWS V14.01,2013-05-24 03:07:00,
2013-05-23 22:12:00,46.8,28.6,30.29,East,101,0.0,0.0,49,0.00,,---,0.00,VWS V14.01,2013-05-24 03:12:00,
2013-05-23 22:18:00,46.6,29.0,30.29,East,101,0.0,0.0,50,0.00,,---,0.00,VWS V14.01,2013-05-24 03:18:00,
2013-05-23 22:24:00,46.2,29.6,30.29,East,100,0.0,0.0,52,0.00,,---,0.00,VWS V14.01,2013-05-24 03:24:00,
2013-05-23 22:30:00,46.0,29.9,30.29,East,100,0.0,0.0,53,0.00,,---,0.00,VWS V14.01,2013-05-24 03:30:00,
2013-05-23 22:35:00,45.7,29.5,30.29,East,101,0.0,0.0,53,0.00,,---,0.00,VWS V14.01,2013-05-24 03:35:00,
2013-05-23 22:40:00,45.3,29.7,30.29,East,100,0.0,0.0,54,0.00,,---,0.00,VWS V14.01,2013-05-24 03:40:00,
2013-05-23 22:45:00,44.8,30.1,30.29,East,100,0.0,0.0,56,0.00,,---,0.00,VWS V14.01,2013-05-24 03:45:00,
2013-05-23 22:51:00,44.2,30.4,30.29,East,100,0.0,0.0,58,0.00,,---,0.00,VWS V14.01,2013-05-24 03:51:00,
2013-05-23 22:56:00,43.9,30.5,30.29,East,100,0.0,0.0,59,0.00,,---,0.00,VWS V14.01,2013-05-24 03:56:00,
2013-05-23 23:01:00,43.5,30.6,30.29,East,100,0.0,0.0,60,0.00,,---,0.00,VWS V14.01,2013-05-24 04:01:00,
2013-05-23 23:02:00,43.5,30.6,30.29,East,100,0.0,0.0,60,0.00,,---,0.00,VWS V14.01,2013-05-24 04:02:00,
2013-05-23 23:08:00,43.0,30.1,30.29,East,100,0.0,0.0,60,0.00,,---,0.00,VWS V14.01,2013-05-24 04:08:00,
2013-05-23 23:09:00,43.0,30.5,30.29,East,101,0.0,0.0,61,0.00,,---,0.00,VWS V14.01,2013-05-24 04:09:00,
2013-05-23 23:12:00,42.8,30.3,30.29,East,101,0.0,0.0,61,0.00,,---,0.00,VWS V14.01,2013-05-24 04:12:00,
2013-05-23 23:13:00,42.6,30.1,30.29,East,100,0.0,0.0,61,0.00,,---,0.00,VWS V14.01,2013-05-24 04:13:00,
2013-05-23 23:18:00,42.3,30.2,30.32,East,101,0.0,0.0,62,0.00,,---,0.00,VWS V14.01,2013-05-24 04:18:00,
2013-05-23 23:23:00,42.1,30.0,30.32,East,100,0.0,0.0,62,0.00,,---,0.00,VWS V14.01,2013-05-24 04:23:00,
2013-05-23 23:29:00,41.7,29.7,30.32,East,100,0.0,0.0,62,0.00,,---,0.00,VWS V14.01,2013-05-24 04:29:00,
2013-05-23 23:34:00,41.5,29.5,30.32,East,101,0.0,0.0,62,0.00,,---,0.00,VWS V14.01,2013-05-24 04:34:00,
2013-05-23 23:40:00,41.0,29.0,30.32,East,100,0.0,0.0,62,0.00,,---,0.00,VWS V14.01,2013-05-24 04:40:00,
2013-05-23 23:45:00,41.0,29.0,30.32,East,100,0.0,0.0,62,0.00,,---,0.00,VWS V14.01,2013-05-24 04:45:00,
2013-05-23 23:51:00,41.0,29.0,30.32,East,101,0.0,0.0,62,0.00,,---,0.00,VWS V14.01,2013-05-24 04:51:00,
2013-05-23 23:56:00,41.0,29.4,30.32,East,101,0.0,0.0,63,0.00,,---,0.00,VWS V14.01,2013-05-24 04:56:00,